createdAt,value
2023-04-08T00:00:01.125Z,102243.41
2023-04-08T00:02:29.013Z,102233.63
2023-04-08T00:04:56.980Z,102243.25
2023-04-08T00:07:26.164Z,102249.09
2023-04-08T00:09:53.761Z,102253.50
2023-04-08T00:12:21.627Z,102241.25
2023-04-08T00:14:49.214Z,102245.75
2023-04-08T00:17:16.893Z,102249.81
2023-04-08T00:19:44.676Z,102253.00
2023-04-08T00:22:12.418Z,102256.59
2023-04-08T00:24:41.530Z,102243.94
2023-04-08T00:27:09.134Z,102257.31
2023-04-08T00:29:36.745Z,102268.06
2023-04-08T00:32:04.814Z,102261.19
2023-04-08T00:34:32.477Z,102257.03
2023-04-08T00:37:01.215Z,102267.44
2023-04-08T00:39:28.862Z,102264.44
2023-04-08T00:41:57.857Z,102268.41
2023-04-08T00:44:25.469Z,102269.75
2023-04-08T00:46:53.111Z,102262.25
2023-04-08T00:49:20.903Z,102272.47
2023-04-08T00:51:48.577Z,102263.53
2023-04-08T00:54:16.257Z,102255.91
2023-04-08T00:56:45.771Z,102269.06
2023-04-08T00:59:15.336Z,102268.34
2023-04-08T01:01:50.243Z,102257.41
2023-04-08T01:04:41.544Z,102274.22
2023-04-08T01:07:15.952Z,102263.66
2023-04-08T01:09:47.562Z,102260.28
2023-04-08T01:12:20.984Z,102275.53
2023-04-08T01:14:53.373Z,102259.88
2023-04-08T01:17:23.278Z,102267.63
2023-04-08T01:19:51.886Z,102260.75
2023-04-08T01:22:28.140Z,102256.63
2023-04-08T01:25:01.809Z,102248.75
2023-04-08T01:27:32.999Z,102261.03
2023-04-08T01:30:03.143Z,102250.94
2023-04-08T01:32:33.086Z,102246.22
2023-04-08T01:35:02.045Z,102264.56
2023-04-08T01:37:31.443Z,102245.72
2023-04-08T01:40:01.407Z,102256.78
2023-04-08T01:42:32.417Z,102250.16
2023-04-08T01:45:01.989Z,102256.44
2023-04-08T01:47:31.252Z,102254.25
2023-04-08T01:50:00.905Z,102246.19
2023-04-08T01:52:30.352Z,102242.69
2023-04-08T01:54:58.206Z,102258.50
2023-04-08T01:57:29.199Z,102247.63
2023-04-08T02:00:02.748Z,102252.59
2023-04-08T02:02:32.732Z,102253.50
2023-04-08T02:05:00.717Z,102245.19
2023-04-08T02:07:28.347Z,102233.97
2023-04-08T02:09:57.333Z,102226.03
2023-04-08T02:12:26.387Z,102236.47
2023-04-08T02:14:54.871Z,102231.47
2023-04-08T02:17:29.219Z,102226.69
2023-04-08T02:20:02.052Z,102222.38
2023-04-08T02:22:37.834Z,102224.59
2023-04-08T02:25:09.265Z,102232.69
2023-04-08T02:27:38.406Z,102228.38
2023-04-08T02:30:07.979Z,102223.28
2023-04-08T02:32:38.002Z,102228.63
2023-04-08T02:35:07.360Z,102229.00
2023-04-08T02:37:35.061Z,102226.94
2023-04-08T02:40:02.821Z,102225.25
2023-04-08T02:42:30.494Z,102225.91
2023-04-08T02:44:58.463Z,102232.44
2023-04-08T02:47:26.185Z,102226.91
2023-04-08T02:49:55.583Z,102235.41
2023-04-08T02:52:23.183Z,102237.13
2023-04-08T02:54:51.081Z,102235.19
2023-04-08T02:57:18.724Z,102232.09
2023-04-08T02:59:46.307Z,102246.41
2023-04-08T03:02:14.020Z,102245.91
2023-04-08T03:04:41.726Z,102243.25
2023-04-08T03:07:10.898Z,102242.00
2023-04-08T03:09:38.538Z,102241.59
2023-04-08T03:12:06.561Z,102246.38
2023-04-08T03:14:34.348Z,102241.56
2023-04-08T03:17:01.955Z,102242.19
2023-04-08T03:19:29.617Z,102256.06
2023-04-08T03:21:57.261Z,102239.44
2023-04-08T03:24:26.273Z,102252.34
2023-04-08T03:26:53.899Z,102255.44
2023-04-08T03:29:21.478Z,102263.25
2023-04-08T03:31:49.255Z,102253.50
2023-04-08T03:34:17.106Z,102256.50
2023-04-08T03:36:44.825Z,102263.47
2023-04-08T03:39:12.527Z,102258.81
2023-04-08T03:41:41.525Z,102238.16
2023-04-08T03:44:09.270Z,102263.69
2023-04-08T03:46:36.896Z,102265.00
2023-04-08T03:49:04.561Z,102271.53
2023-04-08T03:51:32.181Z,102265.19
2023-04-08T03:53:59.774Z,102269.69
2023-04-08T03:56:27.587Z,102267.97
2023-04-08T03:58:56.595Z,102271.00
2023-04-08T04:01:24.206Z,102283.88
2023-04-08T04:03:52.013Z,102277.03
2023-04-08T04:06:19.920Z,102283.69
2023-04-08T04:08:47.886Z,102280.97
2023-04-08T04:11:15.773Z,102284.56
2023-04-08T04:13:43.370Z,102275.69
2023-04-08T04:16:12.418Z,102288.50
2023-04-08T04:18:40.128Z,102282.78
2023-04-08T04:21:08.014Z,102279.59
2023-04-08T04:23:35.613Z,102285.00
2023-04-08T04:26:03.370Z,102300.53
2023-04-08T04:28:31.125Z,102284.78
2023-04-08T04:30:58.786Z,102296.06
2023-04-08T04:33:27.742Z,102303.97
2023-04-08T04:35:56.042Z,102292.72
2023-04-08T04:38:23.701Z,102299.56
2023-04-08T04:40:51.360Z,102306.19
2023-04-08T04:43:20.039Z,102304.16
2023-04-08T04:45:47.652Z,102312.25
2023-04-08T04:48:15.460Z,102312.78
2023-04-08T04:50:55.456Z,102320.41
2023-04-08T04:53:23.177Z,102320.06
2023-04-08T04:55:51.246Z,102323.66
2023-04-08T04:58:19.516Z,102314.81
2023-04-08T05:00:47.155Z,102327.22
2023-04-08T05:03:14.929Z,102332.31
2023-04-08T05:05:44.006Z,102335.50
2023-04-08T05:08:11.728Z,102335.53
2023-04-08T05:10:41.922Z,102334.78
2023-04-08T05:13:09.606Z,102342.91
2023-04-08T05:15:37.269Z,102344.94
2023-04-08T05:18:04.966Z,102339.38
2023-04-08T05:20:32.619Z,102343.19
2023-04-08T05:23:01.651Z,102339.94
2023-04-08T05:25:29.275Z,102341.31
2023-04-08T05:27:57.450Z,102332.72
2023-04-08T05:30:25.127Z,102342.16
2023-04-08T05:32:52.853Z,102348.44
2023-04-08T05:35:20.516Z,102352.84
2023-04-08T05:37:48.212Z,102347.91
2023-04-08T05:40:17.382Z,102345.91
2023-04-08T05:42:44.995Z,102346.22
2023-04-08T05:45:12.674Z,102348.69
2023-04-08T05:47:40.562Z,102353.34
2023-04-08T05:50:09.528Z,102352.06
2023-04-08T05:52:37.234Z,102367.06
2023-04-08T05:55:05.454Z,102360.56
2023-04-08T05:57:34.422Z,102365.78
2023-04-08T06:00:02.091Z,102366.97
2023-04-08T06:02:29.858Z,102363.31
2023-04-08T06:04:57.672Z,102368.13
2023-04-08T06:07:25.350Z,102374.97
2023-04-08T06:09:52.990Z,102365.53
2023-04-08T06:12:20.657Z,102371.81
2023-04-08T06:14:49.630Z,102377.13
2023-04-08T06:17:17.275Z,102371.66
2023-04-08T06:19:44.866Z,102378.34
2023-04-08T06:22:12.509Z,102380.94
2023-04-08T06:24:40.137Z,102392.72
2023-04-08T06:27:08.131Z,102394.22
2023-04-08T06:29:35.905Z,102389.97
2023-04-08T06:32:06.137Z,102400.53
2023-04-08T06:34:33.982Z,102397.56
2023-04-08T06:37:01.634Z,102405.75
2023-04-08T06:39:29.293Z,102402.09
2023-04-08T06:41:58.065Z,102406.06
2023-04-08T06:44:25.794Z,102412.94
2023-04-08T06:46:53.415Z,102406.19
2023-04-08T06:49:22.394Z,102412.47
2023-04-08T06:51:50.501Z,102417.06
2023-04-08T06:54:18.270Z,102422.41
2023-04-08T06:56:45.860Z,102415.91
2023-04-08T06:59:13.575Z,102424.81
2023-04-08T07:01:41.732Z,102415.78
2023-04-08T07:04:09.445Z,102425.63
2023-04-08T07:06:38.469Z,102423.75
2023-04-08T07:09:06.277Z,102418.75
2023-04-08T07:11:33.915Z,102425.69
2023-04-08T07:14:01.606Z,102437.84
2023-04-08T07:16:29.384Z,102428.25
2023-04-08T07:18:57.927Z,102423.75
2023-04-08T07:21:25.762Z,102427.50
2023-04-08T07:23:54.704Z,102441.16
2023-04-08T07:26:22.498Z,102436.53
2023-04-08T07:28:50.318Z,102439.09
2023-04-08T07:31:19.419Z,102434.88
2023-04-08T07:33:47.663Z,102438.09
2023-04-08T07:36:18.218Z,102442.59
2023-04-08T07:38:46.013Z,102439.31
2023-04-08T07:41:14.974Z,102439.44
2023-04-08T07:43:42.662Z,102447.81
2023-04-08T07:46:10.494Z,102444.72
2023-04-08T07:48:38.596Z,102399.88
2023-04-08T07:51:08.531Z,102445.59
2023-04-08T07:53:38.755Z,102451.09
2023-04-08T07:56:12.558Z,102450.59
2023-04-08T07:58:42.384Z,102443.38
2023-04-08T08:01:21.650Z,102450.75
2023-04-08T08:03:49.874Z,102449.00
2023-04-08T08:06:18.013Z,102464.91
2023-04-08T08:08:45.801Z,102466.50
2023-04-08T08:11:13.628Z,102466.31
2023-04-08T08:13:42.613Z,102472.75
2023-04-08T08:16:11.695Z,102470.72
2023-04-08T08:18:41.031Z,102464.50
2023-04-08T08:21:09.516Z,102450.31
2023-04-08T08:23:37.420Z,102476.97
2023-04-08T08:26:07.537Z,102476.38
2023-04-08T08:28:35.188Z,102474.41
2023-04-08T08:31:05.915Z,102476.88
2023-04-08T08:33:33.873Z,102478.31
2023-04-08T08:36:01.670Z,102490.03
2023-04-08T08:38:29.337Z,102482.81
2023-04-08T08:40:57.711Z,102477.03
2023-04-08T08:43:25.748Z,102477.88
2023-04-08T08:45:54.621Z,102490.41
2023-04-08T08:48:23.708Z,102493.13
2023-04-08T08:50:51.503Z,102494.50
2023-04-08T08:53:19.717Z,102498.25
2023-04-08T08:58:17.917Z,102509.56
2023-04-08T09:00:45.520Z,102505.19
2023-04-08T09:03:20.908Z,102501.72
2023-04-08T09:05:51.513Z,102499.75
2023-04-08T09:08:30.066Z,102502.41
2023-04-08T09:11:12.244Z,102506.25
2023-04-08T09:13:40.111Z,102514.66
2023-04-08T09:16:09.579Z,102508.97
2023-04-08T09:18:37.870Z,102487.97
2023-04-08T09:21:08.167Z,102515.03
2023-04-08T09:23:40.382Z,102520.50
2023-04-08T09:26:12.873Z,102520.22
2023-04-08T09:28:41.914Z,102514.47
2023-04-08T09:31:23.587Z,102514.66
2023-04-08T09:33:52.302Z,102522.94
2023-04-08T09:36:21.755Z,102518.75
2023-04-08T09:38:49.536Z,102530.66
2023-04-08T09:41:20.760Z,102524.22
2023-04-08T09:43:50.733Z,102530.31
2023-04-08T09:46:19.982Z,102523.28
2023-04-08T09:48:52.160Z,102478.78
2023-04-08T09:51:24.055Z,102525.25
2023-04-08T09:54:00.592Z,102526.16
2023-04-08T09:56:36.878Z,102524.09
2023-04-08T09:59:10.915Z,102527.50
2023-04-08T10:01:39.956Z,102522.84
2023-04-08T10:04:13.430Z,102519.84
2023-04-08T10:06:42.993Z,102527.03
2023-04-08T10:09:11.423Z,102527.16
2023-04-08T10:11:39.212Z,102527.00
2023-04-08T10:14:07.193Z,102520.13
2023-04-08T10:16:35.779Z,102526.81
2023-04-08T10:19:03.563Z,102516.84
2023-04-08T10:21:43.672Z,102513.00
2023-04-08T10:24:12.022Z,102523.13
2023-04-08T10:26:42.260Z,102521.53
2023-04-08T10:29:42.884Z,102525.00
2023-04-08T10:32:28.518Z,102534.16
2023-04-08T10:34:56.223Z,102523.84
2023-04-08T10:37:25.262Z,102534.56
2023-04-08T10:39:55.825Z,102529.91
2023-04-08T10:42:29.193Z,102536.78
2023-04-08T10:45:01.431Z,102516.75
2023-04-08T10:47:29.065Z,102525.75
2023-04-08T10:49:56.703Z,102484.56
2023-04-08T10:52:27.529Z,102532.81
2023-04-08T10:54:55.591Z,102537.03
2023-04-08T10:57:27.176Z,102524.69
2023-04-08T10:59:54.948Z,102520.41
2023-04-08T11:02:22.681Z,102532.91
2023-04-08T11:04:50.657Z,102540.78
2023-04-08T11:07:21.685Z,102530.88
2023-04-08T11:09:51.212Z,102526.44
2023-04-08T11:12:19.684Z,102538.97
2023-04-08T11:14:48.501Z,102532.50
2023-04-08T11:17:17.814Z,102538.41
2023-04-08T11:19:45.489Z,102542.59
2023-04-08T11:22:14.481Z,102532.44
2023-04-08T11:24:42.294Z,102537.00
2023-04-08T11:27:11.493Z,102539.63
2023-04-08T11:29:39.631Z,102531.06
2023-04-08T11:32:08.916Z,102528.78
2023-04-08T11:34:40.474Z,102531.19
2023-04-08T11:37:08.144Z,102534.91
2023-04-08T11:39:35.740Z,102533.28
2023-04-08T11:42:03.355Z,102536.28
2023-04-08T11:44:33.215Z,102543.13
2023-04-08T11:47:02.131Z,102549.28
2023-04-08T11:49:45.240Z,102538.69
2023-04-08T11:52:12.947Z,102537.84
2023-04-08T11:54:43.072Z,102539.03
2023-04-08T11:57:10.856Z,102537.44
2023-04-08T11:59:39.891Z,102545.03
2023-04-08T12:02:07.847Z,102540.38
2023-04-08T12:04:35.865Z,102546.91
2023-04-08T12:07:04.278Z,102556.22
2023-04-08T12:09:31.864Z,102537.63
2023-04-08T12:11:59.478Z,102544.38
2023-04-08T12:14:28.385Z,102549.00
2023-04-08T12:16:57.519Z,102545.88
2023-04-08T12:19:25.206Z,102555.22
2023-04-08T12:21:52.816Z,102559.06
2023-04-08T12:24:21.027Z,102551.63
2023-04-08T12:26:48.679Z,102551.03
2023-04-08T12:29:16.296Z,102548.06
2023-04-08T12:31:43.923Z,102555.94
2023-04-08T12:34:13.323Z,102550.06
2023-04-08T12:36:41.987Z,102556.00
2023-04-08T12:39:09.670Z,102554.75
2023-04-08T12:41:37.303Z,102551.31
2023-04-08T12:44:05.392Z,102550.34
2023-04-08T12:46:33.119Z,102553.00
2023-04-08T12:49:04.935Z,102552.00
2023-04-08T12:51:34.632Z,102552.47
2023-04-08T12:54:03.540Z,102539.13
2023-04-08T12:56:31.622Z,102560.38
2023-04-08T12:58:59.349Z,102556.78
2023-04-08T13:01:26.947Z,102557.81
2023-04-08T13:03:54.906Z,102560.59
2023-04-08T13:06:22.957Z,102566.59
2023-04-08T13:08:52.057Z,102567.03
2023-04-08T13:11:21.336Z,102559.13
2023-04-08T13:13:49.395Z,102559.16
2023-04-08T13:16:17.445Z,102534.38
2023-04-08T13:18:45.250Z,102552.44
2023-04-08T13:21:12.873Z,102559.28
2023-04-08T13:23:40.543Z,102560.56
2023-04-08T13:26:09.503Z,102560.25
2023-04-08T13:28:49.679Z,102554.19
2023-04-08T13:31:24.290Z,102565.53
2023-04-08T13:33:53.293Z,102553.78
2023-04-08T13:36:22.230Z,102553.78
2023-04-08T13:38:50.591Z,102558.06
2023-04-08T13:41:21.071Z,102557.84
2023-04-08T13:43:48.733Z,102563.41
2023-04-08T13:46:16.400Z,102554.47
2023-04-08T13:48:44.363Z,102559.78
2023-04-08T13:51:11.947Z,102560.25
2023-04-08T13:53:39.646Z,102555.78
2023-04-08T13:56:07.849Z,102559.44
2023-04-08T13:58:36.951Z,102555.03
2023-04-08T14:01:04.644Z,102554.34
2023-04-08T14:03:32.393Z,102546.91
2023-04-08T14:06:01.691Z,102557.34
2023-04-08T14:08:29.627Z,102550.88
2023-04-08T14:10:57.849Z,102557.06
2023-04-08T14:13:25.594Z,102556.53
2023-04-08T14:15:56.181Z,102561.25
2023-04-08T14:18:23.749Z,102551.88
2023-04-08T14:20:51.749Z,102561.66
2023-04-08T14:23:19.447Z,102559.69
2023-04-08T14:25:47.051Z,102566.31
2023-04-08T14:28:14.733Z,102562.19
2023-04-08T14:30:42.815Z,102575.81
2023-04-08T14:33:12.068Z,102565.19
2023-04-08T14:35:39.716Z,102562.69
2023-04-08T14:38:07.324Z,102559.13
2023-04-08T14:40:37.508Z,102553.63
2023-04-08T14:43:05.547Z,102554.81
2023-04-08T14:45:33.188Z,102555.34
2023-04-08T14:48:00.876Z,102543.44
2023-04-08T14:50:30.836Z,102554.59
2023-04-08T14:52:58.655Z,102550.47
2023-04-08T14:55:28.410Z,102552.75
2023-04-08T14:57:56.018Z,102542.25
2023-04-08T15:00:23.840Z,102533.34
2023-04-08T15:02:51.588Z,102545.97
2023-04-08T15:05:19.243Z,102555.31
2023-04-08T15:07:48.544Z,102551.03
2023-04-08T15:10:16.162Z,102555.75
2023-04-08T15:12:43.785Z,102550.38
2023-04-08T15:15:11.694Z,102560.88
2023-04-08T15:17:39.376Z,102551.31
2023-04-08T15:20:08.332Z,102555.44
2023-04-08T15:22:35.972Z,102552.19
2023-04-08T15:25:06.032Z,102563.25
2023-04-08T15:27:34.216Z,102556.50
2023-04-08T15:30:01.934Z,102561.81
2023-04-08T15:32:29.716Z,102563.41
2023-04-08T15:34:57.346Z,102567.75
2023-04-08T15:37:24.981Z,102566.09
2023-04-08T15:39:53.699Z,102565.19
2023-04-08T15:42:23.571Z,102576.28
2023-04-08T15:44:51.146Z,102565.03
2023-04-08T15:47:18.756Z,102565.25
2023-04-08T15:49:48.688Z,102579.75
2023-04-08T15:52:16.790Z,102575.91
2023-04-08T15:54:44.385Z,102573.72
2023-04-08T15:57:12.364Z,102566.91
2023-04-08T15:59:41.441Z,102582.16
2023-04-08T16:02:09.146Z,102578.63
2023-04-08T16:04:36.845Z,102586.41
2023-04-08T16:07:04.513Z,102584.06
2023-04-08T16:09:32.124Z,102576.00
2023-04-08T16:11:59.915Z,102582.78
2023-04-08T16:14:27.556Z,102566.13
2023-04-08T16:16:57.629Z,102576.84
2023-04-08T16:19:25.358Z,102576.09
2023-04-08T16:21:52.996Z,102571.41
2023-04-08T16:24:21.518Z,102569.53
2023-04-08T16:26:49.211Z,102572.56
2023-04-08T16:29:16.836Z,102576.53
2023-04-08T16:31:44.493Z,102588.78
2023-04-08T16:34:13.582Z,102583.56
2023-04-08T16:36:41.244Z,102581.81
2023-04-08T16:39:09.422Z,102576.44
2023-04-08T16:41:39.333Z,102586.66
2023-04-08T16:44:07.445Z,102585.78
2023-04-08T16:46:36.137Z,102591.22
2023-04-08T16:49:03.858Z,102592.44
2023-04-08T16:51:32.899Z,102593.38
2023-04-08T16:54:00.852Z,102587.81
2023-04-08T16:56:28.941Z,102592.75
2023-04-08T16:58:56.577Z,102588.34
2023-04-08T17:01:24.231Z,102583.78
2023-04-08T17:03:53.149Z,102592.81
2023-04-08T17:06:21.186Z,102595.84
2023-04-08T17:08:50.572Z,102590.03
2023-04-08T17:11:18.499Z,102596.28
2023-04-08T17:13:46.336Z,102598.81
2023-04-08T17:16:15.653Z,102594.28
2023-04-08T17:18:43.493Z,102605.16
2023-04-08T17:21:11.895Z,102605.09
2023-04-08T17:23:39.480Z,102550.66
2023-04-08T17:26:09.408Z,102580.13
2023-04-08T17:28:37.986Z,102600.59
2023-04-08T17:31:05.994Z,102598.22
2023-04-08T17:33:34.011Z,102614.75
2023-04-08T17:36:02.378Z,102608.41
2023-04-08T17:38:30.439Z,102606.00
2023-04-08T17:40:58.058Z,102612.81
2023-04-08T17:43:27.266Z,102607.50
2023-04-08T17:45:55.079Z,102614.50
2023-04-08T17:48:22.741Z,102610.84
2023-04-08T17:50:50.318Z,102611.78
2023-04-08T17:53:17.972Z,102609.97
2023-04-08T17:55:45.600Z,102620.09
2023-04-08T17:58:13.226Z,102608.78
2023-04-08T18:00:42.184Z,102610.19
2023-04-08T18:03:10.757Z,102621.50
2023-04-08T18:05:38.555Z,102623.41
2023-04-08T18:08:06.246Z,102608.22
2023-04-08T18:10:33.852Z,102624.75
2023-04-08T18:13:11.249Z,102625.31
2023-04-08T18:15:40.006Z,102623.81
2023-04-08T18:18:09.063Z,102630.13
2023-04-08T18:20:37.324Z,102627.63
2023-04-08T18:23:05.409Z,102628.38
2023-04-08T18:25:34.418Z,102641.09
2023-04-08T18:28:02.263Z,102641.47
2023-04-08T18:30:30.240Z,102640.94
2023-04-08T18:32:57.981Z,102638.38
2023-04-08T18:35:27.044Z,102652.72
2023-04-08T18:37:54.732Z,102649.56
2023-04-08T18:40:22.435Z,102657.69
2023-04-08T18:42:50.032Z,102653.25
2023-04-08T18:45:17.784Z,102657.66
2023-04-08T18:47:45.578Z,102653.13
2023-04-08T18:50:13.277Z,102653.56
2023-04-08T18:52:42.824Z,102661.19
2023-04-08T18:55:10.508Z,102660.78
2023-04-08T18:57:38.173Z,102662.97
2023-04-08T19:00:06.938Z,102662.50
2023-04-08T19:02:34.643Z,102662.66
2023-04-08T19:05:02.433Z,102665.09
2023-04-08T19:07:30.238Z,102652.44
2023-04-08T19:09:59.280Z,102666.34
2023-04-08T19:12:27.064Z,102666.72
2023-04-08T19:14:54.850Z,102667.84
2023-04-08T19:17:22.517Z,102659.16
2023-04-08T19:19:50.262Z,102653.41
2023-04-08T19:22:17.875Z,102649.50
2023-04-08T19:24:45.638Z,102650.31
2023-04-08T19:27:14.867Z,102641.13
2023-04-08T19:29:42.826Z,102646.16
2023-04-08T19:32:10.441Z,102649.75
2023-04-08T19:34:39.130Z,102645.44
2023-04-08T19:37:07.200Z,102647.44
2023-04-08T19:39:34.962Z,102650.06
2023-04-08T19:42:02.592Z,102640.66
2023-04-08T19:44:31.749Z,102647.06
2023-04-08T19:46:59.691Z,102645.41
2023-04-08T19:49:27.308Z,102647.09
2023-04-08T19:51:55.739Z,102623.19
2023-04-08T19:54:23.893Z,102643.97
2023-04-08T19:56:51.578Z,102639.94
2023-04-08T19:59:19.346Z,102644.91
2023-04-08T20:01:48.404Z,102643.00
2023-04-08T20:04:16.396Z,102638.72
2023-04-08T20:06:44.058Z,102649.31
2023-04-08T20:09:11.911Z,102659.53
2023-04-08T20:11:39.541Z,102651.91
2023-04-08T20:14:07.286Z,102667.53
2023-04-08T20:16:35.021Z,102659.41
2023-04-08T20:19:04.169Z,102669.72
2023-04-08T20:21:32.659Z,102666.34
2023-04-08T20:24:00.887Z,102670.16
2023-04-08T20:26:28.756Z,102668.69
2023-04-08T20:28:58.617Z,102667.25
2023-04-08T20:31:26.764Z,102670.31
2023-04-08T20:33:54.428Z,102674.16
2023-04-08T20:36:24.749Z,102668.34
2023-04-08T20:38:53.357Z,102673.50
2023-04-08T20:41:22.664Z,102676.03
2023-04-08T20:43:52.586Z,102666.59
2023-04-08T20:46:20.847Z,102668.00
2023-04-08T20:48:48.458Z,102670.72
2023-04-08T20:51:17.384Z,102674.81
2023-04-08T20:53:46.348Z,102676.63
2023-04-08T20:56:14.011Z,102675.88
2023-04-08T20:58:41.643Z,102677.19
2023-04-08T21:01:09.388Z,102679.16
2023-04-08T21:03:37.337Z,102674.94
2023-04-08T21:06:05.632Z,102677.47
2023-04-08T21:08:33.270Z,102670.97
2023-04-08T21:11:02.283Z,102672.88
2023-04-08T21:13:29.902Z,102671.59
2023-04-08T21:15:57.706Z,102677.94
2023-04-08T21:18:25.467Z,102672.59
2023-04-08T21:20:53.107Z,102683.59
2023-04-08T21:23:21.361Z,102686.44
2023-04-08T21:25:49.044Z,102677.03
2023-04-08T21:28:18.175Z,102677.03
2023-04-08T21:30:45.981Z,102674.47
2023-04-08T21:33:13.594Z,102666.25
2023-04-08T21:35:41.240Z,102677.16
2023-04-08T21:38:08.821Z,102684.41
2023-04-08T21:40:36.459Z,102685.75
2023-04-08T21:43:04.138Z,102682.47
2023-04-08T21:45:33.123Z,102677.16
2023-04-08T21:48:00.851Z,102693.69
2023-04-08T21:50:32.812Z,102686.88
2023-04-08T21:53:00.745Z,102682.47
2023-04-08T21:59:15.678Z,102684.41
2023-04-08T22:01:44.821Z,102683.84
2023-04-08T22:04:12.624Z,102672.25
2023-04-08T22:06:40.725Z,102678.06
2023-04-08T22:09:08.359Z,102679.84
2023-04-08T22:11:35.961Z,102675.09
2023-04-08T22:14:03.715Z,102685.44
2023-04-08T22:16:32.071Z,102679.53
2023-04-08T22:19:01.332Z,102674.16
2023-04-08T22:21:29.041Z,102681.53
2023-04-08T22:23:56.648Z,102679.19
2023-04-08T22:26:24.315Z,102668.88
2023-04-08T22:28:52.422Z,102671.31
2023-04-08T22:31:20.872Z,102663.75
2023-04-08T22:33:48.684Z,102671.56
2023-04-08T22:36:17.675Z,102675.59
2023-04-08T22:38:46.274Z,102677.56
2023-04-08T22:41:18.695Z,102678.16
2023-04-08T22:43:46.885Z,102680.22
2023-04-08T22:46:15.376Z,102679.19
2023-04-08T22:48:43.165Z,102674.78
2023-04-08T22:51:11.286Z,102676.50
2023-04-08T22:53:40.518Z,102683.56
2023-04-08T22:56:08.421Z,102683.56
2023-04-08T22:58:36.251Z,102675.78
2023-04-08T23:01:11.594Z,102675.94
2023-04-08T23:03:39.386Z,102670.16
2023-04-08T23:06:07.029Z,102672.13
2023-04-08T23:08:34.705Z,102676.94
2023-04-08T23:11:03.717Z,102672.50
2023-04-08T23:13:31.342Z,102672.34
2023-04-08T23:15:59.113Z,102676.66
2023-04-08T23:18:26.780Z,102675.06
2023-04-08T23:20:55.373Z,102674.31
2023-04-08T23:23:24.646Z,102673.47
2023-04-08T23:25:54.945Z,102656.66
2023-04-08T23:28:24.762Z,102678.38
2023-04-08T23:30:52.410Z,102668.94
2023-04-08T23:33:20.039Z,102663.41
2023-04-08T23:35:47.755Z,102659.81
2023-04-08T23:38:15.444Z,102669.41
2023-04-08T23:40:43.076Z,102684.31
2023-04-08T23:43:10.745Z,102687.19
2023-04-08T23:45:39.708Z,102679.84
2023-04-08T23:48:10.062Z,102680.75
2023-04-08T23:50:38.092Z,102677.28
2023-04-08T23:53:05.770Z,102674.13
2023-04-08T23:55:36.225Z,102680.00
2023-04-08T23:58:03.858Z,102673.19
